Time;durP1;ratioP1;P1;durP2;ratioP2;P2;SDS_P1;SDS_P2;PMS_P1;PMS_P2;Temp;Humidity;BMP_temperature;BMP_pressure;BME280_temperature;BME280_humidity;BME280_pressure;Samples;Min_cycle;Max_cycle;Signal;HPM_P1;HPM_P2
2022/09/07 00:00:52;;;;;;;5.70;3.95;;;;;;;26.41;59.03;101020.56;5094370;28;20055;-75
2022/09/07 00:03:20;;;;;;;5.07;3.53;;;;;;;26.41;59.13;101020.56;5094964;28;20059;-75
2022/09/07 00:05:50;;;;;;;6.15;4.50;;;;;;;26.40;58.99;101016.16;5095257;28;20051;-74
2022/09/07 00:08:20;;;;;;;4.85;4.22;;;;;;;26.42;58.99;101014.13;5095121;28;20512;-74
2022/09/07 00:10:59;;;;;;;6.00;4.43;;;;;;;26.41;58.84;101015.13;5094945;28;20385;-75
2022/09/07 00:13:29;;;;;;;5.30;4.20;;;;;;;26.42;59.06;101018.72;5094612;28;20052;-74
2022/09/07 00:15:57;;;;;;;4.47;3.45;;;;;;;26.41;59.03;101028.72;5093659;28;20383;-74
2022/09/07 00:18:24;;;;;;;4.95;4.20;;;;;;;26.40;59.07;101013.44;5093235;28;20052;-75
2022/09/07 00:21:00;;;;;;;5.60;3.75;;;;;;;26.41;59.07;101012.41;5093284;28;20048;-74
2022/09/07 00:23:29;;;;;;;5.03;4.38;;;;;;;26.41;58.87;101012.41;5094860;28;20055;-74
2022/09/07 00:26:01;;;;;;;5.25;3.97;;;;;;;26.42;58.87;101013.28;5092921;28;20048;-74
2022/09/07 00:28:29;;;;;;;4.57;4.10;;;;;;;26.41;58.86;101006.16;5094759;28;20483;-74
2022/09/07 00:30:57;;;;;;;5.60;4.47;;;;;;;26.41;58.90;101014.28;5094710;28;20047;-73
2022/09/07 00:33:25;;;;;;;7.13;4.18;;;;;;;26.41;58.99;101007.00;5094634;28;20044;-75
2022/09/07 00:35:52;;;;;;;4.57;4.03;;;;;;;26.42;58.86;101010.59;5092692;28;20048;-74
2022/09/07 00:38:20;;;;;;;4.35;3.60;;;;;;;26.41;58.89;101020.56;5094498;28;20056;-74
2022/09/07 00:40:47;;;;;;;4.45;4.05;;;;;;;26.42;58.95;101016.00;5094362;28;20399;-74
2022/09/07 00:43:27;;;;;;;5.00;3.95;;;;;;;26.40;59.07;101016.16;5094591;28;20054;-74
2022/09/07 00:45:55;;;;;;;6.07;4.00;;;;;;;26.41;59.06;101023.28;5093412;28;20043;-75
2022/09/07 00:48:28;;;;;;;5.63;4.53;;;;;;;26.41;59.12;101009.72;5092925;28;20499;-74
2022/09/07 00:51:00;;;;;;;5.97;4.00;;;;;;;26.41;59.10;101020.56;5093459;28;20044;-75
2022/09/07 00:53:37;;;;;;;5.88;3.80;;;;;;;26.41;58.91;101028.72;5094570;28;20498;-75
2022/09/07 00:56:05;;;;;;;4.00;3.58;;;;;;;26.41;58.97;101023.28;5094304;28;20044;-75
2022/09/07 00:58:34;;;;;;;6.30;4.18;;;;;;;26.42;58.93;101030.44;5094518;28;20043;-75
2022/09/07 01:01:02;;;;;;;7.70;3.95;;;;;;;26.41;58.94;101026.00;5094481;28;20047;-75
2022/09/07 01:03:35;;;;;;;5.05;3.90;;;;;;;26.42;58.93;101016.00;5094496;28;20044;-75
2022/09/07 01:06:16;;;;;;;;;;;;;;;26.40;59.08;101024.31;5094816;28;20043;-75
2022/09/07 01:08:45;;;;;;;4.88;3.85;;;;;;;26.40;58.89;101024.31;5094215;28;19920;-75
2022/09/07 01:11:12;;;;;;;4.82;4.22;;;;;;;26.40;58.99;101029.75;5094278;28;20051;-75
2022/09/07 01:13:42;;;;;;;5.35;3.80;;;;;;;26.39;58.90;101028.91;5094440;28;20055;-74
2022/09/07 01:16:25;;;;;;;5.63;4.00;;;;;;;26.41;58.93;101030.59;5094000;28;20044;-75
2022/09/07 01:19:23;;;;;;;4.50;3.50;;;;;;;26.40;58.84;101029.75;5094580;28;20044;-75
2022/09/07 01:22:02;;;;;;;4.13;3.28;;;;;;;26.39;58.84;101037.03;5092697;28;20055;-75
2022/09/07 01:24:40;;;;;;;5.30;3.88;;;;;;;26.40;58.98;101027.03;5094011;28;20044;-74
2022/09/07 01:27:35;;;;;;;4.80;3.97;;;;;;;26.39;58.91;101025.34;5093110;28;20048;-75
2022/09/07 01:30:07;;;;;;;5.55;3.60;;;;;;;26.41;58.89;101038.72;5094385;28;20071;-75
2022/09/07 01:32:42;;;;;;;5.75;4.35;;;;;;;26.40;58.50;101032.44;5094317;28;20048;-75
2022/09/07 01:35:32;;;;;;;4.45;3.95;;;;;;;26.41;58.53;101038.72;5094006;28;20040;-75
2022/09/07 01:38:14;;;;;;;5.07;3.88;;;;;;;26.39;58.58;101038.91;5093749;28;20059;-75
2022/09/07 01:40:53;;;;;;;5.03;3.83;;;;;;;26.39;58.70;101042.47;5093863;28;20388;-75
2022/09/07 01:43:48;;;;;;;4.85;3.83;;;;;;;26.40;58.82;101037.88;5094063;28;20044;-75
2022/09/07 01:46:38;;;;;;;4.78;3.80;;;;;;;26.38;58.47;101027.22;5031460;28;20065;-74
2022/09/07 01:49:14;;;;;;;4.88;3.70;;;;;;;26.39;58.55;101019.91;5034846;28;20481;-74
2022/09/07 01:51:46;;;;;;;4.05;3.55;;;;;;;26.40;58.53;101021.59;5035788;28;20183;-74
2022/09/07 01:54:26;;;;;;;3.72;3.00;;;;;;;26.39;58.45;101028.06;5035433;28;20049;-75
2022/09/07 01:56:59;;;;;;;4.15;3.33;;;;;;;26.39;58.55;101036.19;5035553;28;20065;-75
2022/09/07 01:59:36;;;;;;;6.35;3.97;;;;;;;26.39;58.51;101030.75;5035403;28;20054;-75
2022/09/07 02:02:13;;;;;;;4.22;3.38;;;;;;;26.39;58.38;101019.91;5035240;28;20046;-75
2022/09/07 02:04:50;;;;;;;4.25;3.42;;;;;;;26.39;58.38;101028.06;5018740;28;20428;-75
2022/09/07 02:07:32;;;;;;;4.93;3.85;;;;;;;26.38;58.22;101021.78;5035546;28;20148;-75
2022/09/07 02:10:09;;;;;;;3.78;3.30;;;;;;;26.38;58.44;101010.91;5035155;28;20061;-73
2022/09/07 02:12:51;;;;;;;4.30;3.58;;;;;;;26.38;58.34;101019.06;5035295;28;20053;-74
2022/09/07 02:15:43;;;;;;;4.80;3.80;;;;;;;26.39;58.39;101015.31;5035138;28;20049;-74
2022/09/07 02:18:15;;;;;;;4.88;3.47;;;;;;;26.39;58.26;101022.63;5034988;28;20058;-74
2022/09/07 02:20:48;;;;;;;5.40;3.67;;;;;;;26.39;58.33;101019.91;5034919;28;20064;-74
2022/09/07 02:23:24;;;;;;;6.00;3.58;;;;;;;26.38;58.19;101010.09;5059147;28;20415;-74
2022/09/07 02:25:57;;;;;;;4.95;3.80;;;;;;;26.38;58.11;101008.22;5097894;28;20371;-73
2022/09/07 02:28:37;;;;;;;3.90;3.53;;;;;;;26.38;57.97;101007.38;5097550;28;20051;-79
2022/09/07 02:31:05;;;;;;;7.07;3.72;;;;;;;26.39;57.34;101000.91;5097114;28;20044;-75
2022/09/07 02:33:33;;;;;;;6.00;4.10;;;;;;;26.37;57.06;100997.50;5097224;28;20047;-75
2022/09/07 02:36:03;;;;;;;6.03;3.67;;;;;;;26.37;56.82;100994.78;5097125;28;20055;-72
2022/09/07 02:38:31;;;;;;;6.38;3.90;;;;;;;26.36;56.61;101002.09;5096872;28;20048;-75
2022/09/07 02:41:00;;;;;;;4.00;3.55;;;;;;;26.35;56.65;100999.56;5096870;28;20047;-74
2022/09/07 02:43:29;;;;;;;5.40;3.50;;;;;;;26.33;56.73;101002.47;5095869;28;20044;-74
2022/09/07 02:46:44;;;;;;;5.70;3.75;;;;;;;26.33;56.60;101013.31;5095515;28;20055;-74
2022/09/07 02:49:51;;;;;;;6.50;3.55;;;;;;;26.32;56.36;101005.34;5096736;28;20044;-73
2022/09/07 02:52:42;;;;;;;6.50;3.30;;;;;;;26.32;56.48;101013.47;5096372;28;20047;-73
2022/09/07 02:55:21;;;;;;;6.63;3.30;;;;;;;26.31;56.38;101003.66;5095092;28;20052;-72
2022/09/07 02:57:54;;;;;;;5.82;3.90;;;;;;;26.31;56.40;101003.66;5096450;28;20043;-73
2022/09/07 03:00:24;;;;;;;5.50;3.67;;;;;;;26.30;56.29;101007.38;5094941;28;20048;-73
2022/09/07 03:03:19;;;;;;;4.57;3.75;;;;;;;26.30;56.26;101002.81;5094854;28;20487;-73
2022/09/07 03:05:50;;;;;;;7.32;4.15;;;;;;;26.30;56.44;101002.81;5096192;28;20044;-75
2022/09/07 03:08:25;;;;;;;5.28;3.45;;;;;;;26.29;56.12;101003.84;5095966;28;20040;-75
2022/09/07 03:10:53;;;;;;;5.68;3.95;;;;;;;26.29;56.17;101002.97;5096022;28;20059;-75
2022/09/07 03:13:27;;;;;;;5.35;3.72;;;;;;;26.30;56.34;100993.81;5096060;28;20044;-73
2022/09/07 03:15:55;;;;;;;5.82;4.13;;;;;;;26.29;56.13;100989.38;5096061;28;20090;-72
2022/09/07 03:18:24;;;;;;;5.28;3.83;;;;;;;26.28;56.17;100991.25;5094770;28;20044;-73
2022/09/07 03:20:53;;;;;;;6.53;4.07;;;;;;;26.29;56.15;100994.81;5095916;28;20040;-73
2022/09/07 03:23:20;;;;;;;4.78;3.50;;;;;;;26.29;56.27;100990.25;5095756;28;20040;-73
2022/09/07 03:25:47;;;;;;;5.13;3.70;;;;;;;26.29;56.22;100992.09;5094617;28;20055;-73
2022/09/07 03:28:16;;;;;;;8.45;4.85;;;;;;;26.28;56.30;100988.53;5095831;28;20040;-73
2022/09/07 03:30:46;;;;;;;7.55;4.30;;;;;;;26.28;56.54;100995.84;5095862;28;20400;-73
2022/09/07 03:33:15;;;;;;;8.27;4.40;;;;;;;26.26;56.33;100985.19;5095802;28;20044;-73
2022/09/07 03:35:55;;;;;;;5.20;4.55;;;;;;;26.25;56.73;100991.63;5095675;28;20044;-73
2022/09/07 03:38:22;;;;;;;5.65;4.25;;;;;;;26.23;56.57;100985.50;5095406;28;20048;-73
2022/09/07 03:41:00;;;;;;;5.22;4.35;;;;;;;26.24;56.94;100989.06;5095536;28;20472;-73
2022/09/07 03:43:29;;;;;;;5.80;4.93;;;;;;;26.24;56.87;100989.06;5095663;28;20051;-72
2022/09/07 03:45:59;;;;;;;7.55;5.03;;;;;;;26.24;57.07;100989.06;5095685;28;20468;-73
2022/09/07 03:48:30;;;;;;;5.28;4.78;;;;;;;26.22;57.18;100988.41;5094119;28;20067;-73
2022/09/07 03:51:02;;;;;;;8.30;5.93;;;;;;;26.24;57.32;100994.50;5093513;28;20058;-73
2022/09/07 03:53:38;;;;;;;8.98;5.82;;;;;;;26.22;57.12;100993.84;5095414;28;20484;-73
2022/09/07 03:56:10;;;;;;;7.80;5.32;;;;;;;26.21;57.13;101002.97;5095303;28;20052;-73
2022/09/07 03:58:38;;;;;;;;;;;;;;;26.20;57.08;101006.72;5095629;28;20052;-73
2022/09/07 04:01:08;;;;;;;7.25;5.25;;;;;;;26.19;57.14;101007.75;5093603;28;20283;-73
2022/09/07 04:03:36;;;;;;;7.22;4.57;;;;;;;26.20;57.16;101013.00;5095210;28;20050;-73
2022/09/07 04:06:03;;;;;;;7.50;5.10;;;;;;;26.20;57.22;101012.16;5095041;28;20051;-73
2022/09/07 04:08:33;;;;;;;4.85;4.35;;;;;;;26.20;57.19;101010.28;5094911;28;20044;-72
2022/09/07 04:11:03;;;;;;;5.80;4.40;;;;;;;26.21;57.01;101027.41;5094369;28;20048;-73
2022/09/07 04:13:32;;;;;;;5.35;4.18;;;;;;;26.21;56.96;101024.69;5094837;28;20411;-73
2022/09/07 04:16:09;;;;;;;6.40;5.03;;;;;;;26.20;56.11;101025.72;5094867;28;20048;-73
2022/09/07 04:18:36;;;;;;;6.85;4.55;;;;;;;26.19;56.22;101027.59;5094694;28;20040;-72
2022/09/07 04:21:04;;;;;;;6.38;4.15;;;;;;;26.20;56.38;101028.44;5094803;28;20055;-74
2022/09/07 04:23:31;;;;;;;5.22;4.63;;;;;;;26.20;56.38;101037.41;5094713;28;20051;-73
2022/09/07 04:25:58;;;;;;;5.10;3.88;;;;;;;26.19;56.03;101043.88;5094858;28;20054;-74
2022/09/07 04:28:26;;;;;;;4.85;4.40;;;;;;;26.20;56.17;101044.72;5092859;28;20055;-73
2022/09/07 04:30:53;;;;;;;5.35;4.38;;;;;;;26.20;56.21;101044.72;5094790;28;20063;-73
2022/09/07 04:33:20;;;;;;;7.95;3.78;;;;;;;26.19;55.57;101046.59;5094496;28;20044;-73
2022/09/07 04:35:48;;;;;;;4.38;3.80;;;;;;;26.18;55.42;101041.34;5094491;28;20043;-73
2022/09/07 04:38:15;;;;;;;5.60;4.40;;;;;;;26.18;55.61;101049.47;5093003;28;20044;-74
2022/09/07 04:40:43;;;;;;;7.72;3.97;;;;;;;26.19;55.80;101043.88;5094414;28;20044;-73
2022/09/07 04:43:11;;;;;;;5.10;3.67;;;;;;;26.20;55.46;101042.00;5094431;28;20044;-73
2022/09/07 04:45:39;;;;;;;4.85;3.70;;;;;;;26.19;55.33;101051.16;5094290;28;20051;-73
2022/09/07 04:48:06;;;;;;;6.30;3.28;;;;;;;26.18;55.24;101052.19;5094251;28;20044;-74
2022/09/07 04:50:34;;;;;;;5.32;3.63;;;;;;;26.18;55.58;101044.06;5094422;28;20058;-73
2022/09/07 04:53:01;;;;;;;6.15;3.63;;;;;;;26.18;55.34;101055.75;5093182;28;20044;-76
2022/09/07 04:55:28;;;;;;;4.00;3.42;;;;;;;26.17;55.17;101037.78;5094259;28;20044;-75
2022/09/07 04:57:56;;;;;;;6.97;3.67;;;;;;;26.17;55.15;101050.47;5094105;28;20044;-76
2022/09/07 05:00:23;;;;;;;7.30;3.83;;;;;;;26.16;55.02;101046.91;5094316;28;20043;-75
2022/09/07 05:02:50;;;;;;;5.43;3.83;;;;;;;26.17;54.83;101047.75;5094148;28;20051;-73
2022/09/07 05:05:17;;;;;;;5.28;3.53;;;;;;;26.14;54.80;101047.09;5094229;28;20051;-74
2022/09/07 05:07:45;;;;;;;5.00;3.80;;;;;;;26.15;54.91;101056.09;5093901;28;20044;-73
2022/09/07 05:10:12;;;;;;;5.82;3.75;;;;;;;26.14;54.80;101048.97;5094115;28;20040;-73
2022/09/07 05:12:39;;;;;;;6.00;3.75;;;;;;;26.13;54.59;101048.13;5094086;28;20048;-73
2022/09/07 05:15:07;;;;;;;5.85;3.70;;;;;;;26.12;54.75;101043.69;5094329;28;20044;-73
2022/09/07 05:18:12;;;;;;;5.30;3.78;;;;;;;26.11;54.38;101047.44;5093680;28;20066;-73
2022/09/07 05:20:40;;;;;;;4.40;3.70;;;;;;;26.11;54.17;101052.03;5092417;28;20048;-76
2022/09/07 05:23:08;;;;;;;6.20;4.00;;;;;;;26.09;54.00;101057.63;5095863;28;20052;-73
2022/09/07 05:25:42;;;;;;;6.03;3.38;;;;;;;26.09;54.50;101048.63;5098076;28;20051;-73
2022/09/07 05:28:10;;;;;;;8.60;3.85;;;;;;;26.08;54.44;101053.19;5098393;28;20463;-73
2022/09/07 05:30:42;;;;;;;4.53;2.97;;;;;;;26.08;54.76;101053.19;5098118;28;20051;-73
2022/09/07 05:33:30;;;;;;;6.43;3.80;;;;;;;26.10;54.71;101059.31;5097757;28;20052;-73
2022/09/07 05:36:17;;;;;;;4.28;3.20;;;;;;;26.10;54.66;101053.88;5097779;28;20044;-74
2022/09/07 05:38:45;;;;;;;4.70;3.63;;;;;;;26.10;54.25;101061.19;5097727;28;20061;-74
2022/09/07 05:41:16;;;;;;;7.53;3.45;;;;;;;26.11;54.36;101073.72;5097866;28;20048;-73
2022/09/07 05:43:44;;;;;;;4.38;3.17;;;;;;;26.11;54.54;101071.00;5098061;28;20044;-73
2022/09/07 05:46:32;;;;;;;5.05;3.35;;;;;;;26.11;54.10;101065.59;5097576;28;20071;-73
2022/09/07 05:49:01;;;;;;;9.70;3.45;;;;;;;26.11;54.13;101077.28;5097772;28;20036;-74
2022/09/07 05:51:29;;;;;;;7.65;3.15;;;;;;;26.11;54.26;101074.56;5097811;28;20055;-73
2022/09/07 05:53:56;;;;;;;4.38;3.00;;;;;;;26.11;54.21;101076.44;5096488;28;20063;-73
2022/09/07 05:56:23;;;;;;;4.78;3.20;;;;;;;26.12;54.08;101080.84;5097612;28;20055;-73
2022/09/07 05:58:51;;;;;;;4.38;3.40;;;;;;;26.11;53.93;101074.56;5097582;28;20348;-73
2022/09/07 06:01:18;;;;;;;5.45;2.80;;;;;;;26.12;53.92;101081.69;5097709;28;20044;-73
2022/09/07 06:03:45;;;;;;;7.00;3.08;;;;;;;26.12;54.12;101070.81;5097423;28;20048;-73
2022/09/07 06:06:15;;;;;;;3.78;2.97;;;;;;;26.12;54.11;101070.81;5097326;28;20051;-73
2022/09/07 06:08:45;;;;;;;6.88;3.22;;;;;;;26.13;54.04;101075.25;5097526;28;20534;-73
2022/09/07 06:11:16;;;;;;;5.95;3.30;;;;;;;26.13;54.16;101069.84;5097405;28;20051;-72
2022/09/07 06:13:43;;;;;;;5.88;2.92;;;;;;;26.15;54.17;101069.66;5096996;28;20040;-72
2022/09/07 06:16:12;;;;;;;5.50;3.08;;;;;;;26.15;54.26;101066.94;5095163;28;20048;-72
2022/09/07 06:18:44;;;;;;;4.95;2.88;;;;;;;26.16;54.15;101071.34;5096622;28;20048;-74
2022/09/07 06:21:19;;;;;;;;;;;;;;;26.17;54.62;101080.31;5097640;28;20048;-74
2022/09/07 06:23:47;;;;;;;5.95;3.15;;;;;;;26.17;55.16;101075.78;5097208;28;19943;-73
2022/09/07 06:26:16;;;;;;;4.88;3.20;;;;;;;26.20;55.45;101082.69;5098114;28;20048;-76
2022/09/07 06:28:46;;;;;;;5.45;3.50;;;;;;;26.20;55.17;101082.69;5096079;28;20055;-77
2022/09/07 06:31:18;;;;;;;;;;;;;;;26.21;55.54;101085.25;5098622;28;20375;-74
2022/09/07 06:33:48;;;;;;;5.80;2.75;;;;;;;26.23;55.42;101098.66;5096754;28;19920;-72
2022/09/07 06:36:18;;;;;;;6.15;3.13;;;;;;;26.23;55.78;101094.06;5097243;28;20051;-72
2022/09/07 06:38:46;;;;;;;5.30;3.13;;;;;;;26.25;55.91;101092.03;5096323;28;20503;-72
2022/09/07 06:41:22;;;;;;;4.07;2.50;;;;;;;26.26;56.01;101093.72;5096379;28;20048;-72
2022/09/07 06:44:11;;;;;;;8.20;3.00;;;;;;;26.27;55.73;101097.28;5095848;28;20541;-72
2022/09/07 06:46:38;;;;;;;7.78;3.05;;;;;;;26.27;55.77;101089.16;5077655;28;20048;-73
2022/09/07 06:49:25;;;;;;;6.47;2.90;;;;;;;26.27;55.89;101089.16;5081034;28;20052;-73
2022/09/07 06:51:53;;;;;;;5.72;2.83;;;;;;;26.27;56.11;101091.88;5096710;28;20040;-73
2022/09/07 06:54:21;;;;;;;5.40;3.00;;;;;;;26.27;55.65;101100.84;5096508;28;20043;-72
2022/09/07 06:57:08;;;;;;;5.80;3.20;;;;;;;26.29;56.19;101116.94;5095873;28;20071;-74
2022/09/07 06:59:37;;;;;;;6.20;3.33;;;;;;;26.28;56.28;101121.53;5095667;28;20072;-72
2022/09/07 07:02:05;;;;;;;7.15;3.00;;;;;;;26.28;56.16;101113.41;5095804;28;20044;-72
2022/09/07 07:04:32;;;;;;;8.27;3.35;;;;;;;26.30;56.16;101124.09;5096056;28;20085;-74
2022/09/07 07:07:11;;;;;;;6.32;3.75;;;;;;;26.29;56.04;101130.53;5095879;28;20044;-74
2022/09/07 07:09:39;;;;;;;5.63;2.80;;;;;;;26.30;56.01;101126.81;5096695;28;20047;-72
2022/09/07 07:12:07;;;;;;;4.22;2.63;;;;;;;26.30;56.07;101113.25;5094574;28;20074;-72
2022/09/07 07:14:35;;;;;;;6.78;2.70;;;;;;;26.31;56.07;101120.34;5096298;28;20475;-72
2022/09/07 07:17:09;;;;;;;4.03;2.55;;;;;;;26.31;56.16;101117.63;5111274;27;20039;-74
2022/09/07 07:19:36;;;;;;;4.70;2.65;;;;;;;26.32;56.23;101111.19;5114449;28;20035;-72
2022/09/07 07:22:03;;;;;;;5.18;3.00;;;;;;;26.32;56.15;101103.03;5115587;28;20043;-72
2022/09/07 07:24:50;;;;;;;7.53;3.10;;;;;;;26.33;56.17;101104.72;5116159;28;20055;-74
2022/09/07 07:27:20;;;;;;;3.97;2.70;;;;;;;26.32;56.17;101103.03;5115555;28;20403;-73
2022/09/07 07:29:48;;;;;;;8.27;3.00;;;;;;;26.33;56.30;101110.16;5115626;28;20482;-74
2022/09/07 07:32:15;;;;;;;3.83;2.78;;;;;;;26.33;56.23;101112.88;5115505;28;20050;-74
2022/09/07 07:34:42;;;;;;;6.25;3.35;;;;;;;26.33;56.31;101124.59;5115790;28;20039;-72
2022/09/07 07:37:10;;;;;;;4.68;2.83;;;;;;;26.35;56.40;101133.41;5115229;28;20043;-72
2022/09/07 07:39:37;;;;;;;4.93;2.63;;;;;;;26.35;56.38;101124.41;5115383;28;20031;-72
2022/09/07 07:42:25;;;;;;;8.00;3.03;;;;;;;26.34;56.54;101129.00;5114900;28;20054;-72
2022/09/07 07:44:53;;;;;;;5.90;3.20;;;;;;;26.35;56.53;101132.56;5114411;28;20055;-72
2022/09/07 07:47:41;;;;;;;7.70;3.10;;;;;;;26.36;56.50;101143.25;5115335;28;20058;-72
2022/09/07 07:50:09;;;;;;;7.65;3.38;;;;;;;26.35;56.47;101133.41;5115036;28;20044;-71
2022/09/07 07:52:56;;;;;;;4.15;3.28;;;;;;;26.36;56.62;101132.38;5114210;28;20047;-74
2022/09/07 07:55:44;;;;;;;4.88;3.20;;;;;;;26.37;56.59;101134.09;5114991;28;20403;-74
2022/09/07 07:58:11;;;;;;;4.20;3.13;;;;;;;26.37;56.52;101127.78;5115081;28;20050;-74
2022/09/07 08:00:39;;;;;;;5.15;2.70;;;;;;;26.37;56.72;101128.69;5113948;28;20043;-74
2022/09/07 08:03:24;;;;;;;4.80;2.95;;;;;;;26.38;56.81;101126.81;5113770;28;20052;-74
2022/09/07 08:05:52;;;;;;;5.07;3.05;;;;;;;26.37;56.66;101128.69;5115135;28;20039;-74
2022/09/07 08:08:21;;;;;;;5.75;3.20;;;;;;;26.38;56.50;101124.94;5114854;28;20050;-72
2022/09/07 08:10:49;;;;;;;4.22;3.00;;;;;;;26.40;56.38;101132.91;5113089;28;20513;-73
2022/09/07 08:13:17;;;;;;;5.78;3.35;;;;;;;26.38;56.60;101138.50;5114968;28;20510;-74
2022/09/07 08:15:45;;;;;;;4.45;3.10;;;;;;;26.40;56.68;101138.31;5114974;28;20047;-72
2022/09/07 08:18:14;;;;;;;4.75;3.15;;;;;;;26.39;56.65;101148.34;5114678;28;20046;-72
2022/09/07 08:20:42;;;;;;;5.13;2.60;;;;;;;26.41;56.67;101153.59;5112900;28;20052;-72
2022/09/07 08:23:10;;;;;;;4.95;2.80;;;;;;;26.41;56.84;101150.88;5114527;28;20073;-73
2022/09/07 08:25:47;;;;;;;6.75;3.45;;;;;;;26.42;56.96;101152.59;5114590;28;20043;-73
2022/09/07 08:28:14;;;;;;;5.78;3.00;;;;;;;26.41;56.87;101159.00;5114566;28;20054;-73
2022/09/07 08:30:42;;;;;;;4.28;2.92;;;;;;;26.41;57.01;101161.72;5114739;28;20039;-72
2022/09/07 08:33:09;;;;;;;4.30;3.10;;;;;;;26.42;56.97;101155.31;5114257;28;20398;-72
2022/09/07 08:35:37;;;;;;;6.10;3.08;;;;;;;26.43;56.97;101158.88;5114418;28;20387;-74
2022/09/07 08:38:04;;;;;;;5.72;2.75;;;;;;;26.43;57.18;101153.44;5114110;28;20051;-75
2022/09/07 08:40:35;;;;;;;6.18;2.70;;;;;;;26.43;57.01;101151.56;5112685;28;20055;-75
2022/09/07 08:43:35;;;;;;;6.32;3.05;;;;;;;26.44;57.33;101152.41;5114517;28;20043;-75
2022/09/07 08:46:30;;;;;;;4.57;2.72;;;;;;;26.44;57.21;101161.41;5112779;28;20071;-72
2022/09/07 08:49:00;;;;;;;7.10;3.42;;;;;;;26.44;57.36;101161.41;5031587;28;20064;-73
2022/09/07 08:51:40;;;;;;;4.72;3.22;;;;;;;26.44;57.63;101161.41;5031645;28;20064;-72
2022/09/07 08:54:12;;;;;;;5.95;3.50;;;;;;;26.45;57.54;101156.84;5031566;28;20065;-72
2022/09/07 08:56:49;;;;;;;6.65;3.50;;;;;;;26.44;57.73;101150.53;5031662;28;20456;-74
2022/09/07 08:59:50;;;;;;;4.85;3.78;;;;;;;26.46;57.45;101156.69;5017710;28;20069;-74
2022/09/07 09:02:17;;;;;;;6.00;3.15;;;;;;;26.45;57.86;101144.09;5031425;28;20152;-73
2022/09/07 09:05:31;;;;;;;7.53;4.82;;;;;;;26.46;59.07;101137.69;5001794;28;20064;-73
2022/09/07 09:07:58;;;;;;;12.18;10.77;;;;;;;26.46;62.39;101148.53;5031868;28;20046;-73
2022/09/07 09:10:32;;;;;;;13.07;9.90;;;;;;;26.46;63.14;101145.84;5031378;28;20157;-74
2022/09/07 09:13:08;;;;;;;14.93;13.35;;;;;;;26.46;63.95;101145.00;5031505;28;20062;-75
2022/09/07 09:15:44;;;;;;;14.30;12.77;;;;;;;26.45;64.13;101140.56;5014332;28;20056;-75
2022/09/07 09:18:39;;;;;;;13.50;12.10;;;;;;;26.44;64.13;101145.09;5031124;28;20057;-73
2022/09/07 09:21:13;;;;;;;19.10;13.52;;;;;;;26.44;65.04;101142.38;5031280;28;20050;-75
2022/09/07 09:23:43;;;;;;;13.15;11.85;;;;;;;26.44;64.58;101128.81;5031255;28;20060;-75
2022/09/07 09:26:21;;;;;;;16.05;14.43;;;;;;;26.46;65.34;101132.25;5075030;28;20067;-73
2022/09/07 09:28:49;;;;;;;15.57;13.88;;;;;;;26.44;64.70;101128.81;5114183;28;20491;-73
2022/09/07 09:31:18;;;;;;;13.52;12.23;;;;;;;26.46;64.95;101134.13;5113753;28;20040;-74
2022/09/07 09:34:03;;;;;;;14.35;12.85;;;;;;;26.45;64.74;101130.53;5113879;28;20043;-73
2022/09/07 09:36:34;;;;;;;15.98;12.98;;;;;;;26.46;65.05;101115.13;5113658;28;20043;-73
2022/09/07 09:39:23;;;;;;;14.15;12.68;;;;;;;26.45;64.86;101111.53;5113499;28;20052;-74
2022/09/07 09:41:53;;;;;;;12.25;11.00;;;;;;;26.45;64.69;101108.81;5113635;28;20055;-73
2022/09/07 09:44:21;;;;;;;13.38;11.98;;;;;;;26.45;64.93;101106.09;5113549;28;20060;-74
2022/09/07 09:46:53;;;;;;;14.52;13.10;;;;;;;26.46;66.03;101096.97;5113653;28;20066;-75
2022/09/07 09:49:43;;;;;;;14.20;12.90;;;;;;;26.46;66.19;101096.13;5113534;28;20047;-74
2022/09/07 09:52:19;;;;;;;12.45;11.25;;;;;;;26.48;67.28;101102.22;5113409;28;20070;-74
2022/09/07 09:54:57;;;;;;;14.27;12.93;;;;;;;26.46;67.86;101090.69;5114077;28;20406;-74
2022/09/07 09:58:00;;;;;;;13.93;12.07;;;;;;;26.46;68.06;101083.38;5113649;28;20044;-76
2022/09/07 10:01:00;;;;;;;12.13;11.02;;;;;;;26.45;68.58;101084.38;5113709;28;20042;-73
2022/09/07 10:03:48;;;;;;;11.75;10.65;;;;;;;26.44;68.61;101095.41;5113356;28;20044;-73
2022/09/07 10:06:19;;;;;;;12.85;11.63;;;;;;;26.42;68.60;101090.16;5112187;28;20040;-73
2022/09/07 10:09:00;;;;;;;11.93;10.93;;;;;;;26.42;69.04;101092.88;5114700;28;20058;-73
2022/09/07 10:11:58;;;;;;;12.20;10.50;;;;;;;26.40;68.79;101094.88;5116421;28;20036;-74
2022/09/07 10:14:45;;;;;;;12.27;10.95;;;;;;;26.40;69.16;101097.59;5117253;28;20052;-73
2022/09/07 10:17:34;;;;;;;12.25;11.15;;;;;;;26.39;68.84;101095.91;5117139;28;20058;-73
2022/09/07 10:20:21;;;;;;;11.00;10.00;;;;;;;26.38;67.15;101091.50;5116036;28;20051;-73
2022/09/07 10:22:51;;;;;;;12.13;10.85;;;;;;;26.39;68.40;101091.34;5034547;28;20065;-74
2022/09/07 10:25:39;;;;;;;13.02;11.57;;;;;;;26.38;67.15;101089.66;5034605;28;20061;-74
2022/09/07 10:28:11;;;;;;;10.80;9.73;;;;;;;26.38;67.58;101086.94;5017597;28;20064;-73
2022/09/07 10:31:03;;;;;;;11.07;9.80;;;;;;;26.39;66.58;101077.75;5017493;28;20045;-74
2022/09/07 10:33:49;;;;;;;11.32;10.25;;;;;;;26.40;68.48;101070.47;5034343;28;20070;-73
2022/09/07 10:36:48;;;;;;;11.23;10.13;;;;;;;26.39;67.86;101068.78;5034091;28;20054;-74
2022/09/07 10:39:19;;;;;;;10.93;9.40;;;;;;;26.39;68.05;101066.91;5017993;28;20057;-74
2022/09/07 10:42:04;;;;;;;10.70;9.60;;;;;;;26.39;68.38;101061.47;5017254;28;20049;-74
2022/09/07 10:44:55;;;;;;;11.18;10.00;;;;;;;26.39;68.48;101050.59;5034344;28;20057;-74
2022/09/07 10:47:42;;;;;;;11.02;9.80;;;;;;;26.39;67.46;101042.47;5034205;28;20074;-74
2022/09/07 10:50:18;;;;;;;12.65;10.57;;;;;;;26.42;66.99;101048.59;5034174;28;20041;-74
2022/09/07 10:52:52;;;;;;;10.60;9.15;;;;;;;26.41;67.39;101045.00;5034036;28;20058;-73
2022/09/07 10:55:31;;;;;;;10.80;9.82;;;;;;;26.43;67.64;101042.13;5017162;28;20056;-74
2022/09/07 10:58:21;;;;;;;11.15;10.15;;;;;;;26.41;67.60;101036.84;5034000;28;20060;-74
2022/09/07 11:01:14;;;;;;;11.00;9.98;;;;;;;26.42;67.63;101033.13;5110917;28;20048;-73
2022/09/07 11:04:19;;;;;;;10.63;9.50;;;;;;;26.41;67.38;101034.13;5115494;28;20059;-73
2022/09/07 11:06:57;;;;;;;13.38;10.52;;;;;;;26.41;67.90;101036.84;5114172;28;20043;-74
2022/09/07 11:09:33;;;;;;;10.75;9.05;;;;;;;26.39;67.09;101026.19;5115563;28;20043;-73
2022/09/07 11:12:23;;;;;;;12.52;10.95;;;;;;;26.40;67.35;101021.59;5116203;28;20043;-75
2022/09/07 11:15:31;;;;;;;11.30;9.77;;;;;;;26.41;67.51;101014.28;5116053;28;20054;-73
2022/09/07 11:18:12;;;;;;;10.20;9.18;;;;;;;26.42;66.87;101019.56;5073069;28;20440;-73
2022/09/07 11:21:02;;;;;;;10.75;9.75;;;;;;;26.43;67.92;101013.09;5071986;28;20409;-73
2022/09/07 11:23:42;;;;;;;10.85;9.85;;;;;;;26.43;67.55;101015.81;5056270;28;20413;-73
2022/09/07 11:26:13;;;;;;;10.15;9.05;;;;;;;26.44;66.72;101011.25;5073239;28;20389;-75
2022/09/07 11:28:54;;;;;;;11.48;9.57;;;;;;;26.44;67.50;101012.09;5056680;28;20056;-74
2022/09/07 11:31:50;;;;;;;10.68;9.73;;;;;;;26.44;67.82;101017.50;5072816;28;20051;-73
2022/09/07 11:34:48;;;;;;;10.82;9.82;;;;;;;26.44;67.89;101005.81;5072727;28;20044;-73
2022/09/07 11:37:18;;;;;;;10.85;9.75;;;;;;;26.44;68.08;100998.50;5072197;28;20053;-73
2022/09/07 11:39:56;;;;;;;10.23;9.25;;;;;;;26.43;66.95;101002.25;5056377;28;20057;-73
2022/09/07 11:42:43;;;;;;;10.30;9.27;;;;;;;26.44;67.51;100993.06;5072579;28;20586;-75
2022/09/07 11:45:13;;;;;;;11.43;10.02;;;;;;;26.45;67.01;100988.53;5072754;28;20053;-74
2022/09/07 11:48:06;;;;;;;11.93;9.18;;;;;;;26.45;67.53;100978.50;5056226;28;20048;-74
2022/09/07 11:50:35;;;;;;;;;;;;;;;26.45;66.44;100977.66;5115184;28;20078;-77
2022/09/07 11:53:08;;;;;;;11.27;9.30;;;;;;;26.45;67.08;100981.22;5114276;28;19981;-74
2022/09/07 11:55:43;;;;;;;11.30;8.48;;;;;;;26.44;67.21;100981.38;5115141;28;20043;-73
2022/09/07 11:58:32;;;;;;;9.40;8.52;;;;;;;26.43;67.35;100964.25;5111471;28;20402;-73
2022/09/07 12:01:26;;;;;;;9.50;8.48;;;;;;;26.43;67.21;100968.84;5115098;28;20372;-73